createdAt,value
2022-08-16T00:00:47.293Z,8.13
2022-08-16T00:03:38.393Z,8.23
2022-08-16T00:06:26.995Z,9.02
2022-08-16T00:09:15.484Z,8.48
2022-08-16T00:12:05.231Z,9.13
2022-08-16T00:14:56.680Z,8.25
2022-08-16T00:17:56.013Z,10.35
2022-08-16T00:20:46.867Z,9.05
2022-08-16T00:23:39.959Z,8.70
2022-08-16T00:26:35.477Z,11.43
2022-08-16T00:29:31.937Z,7.53
2022-08-16T00:32:19.730Z,9.55
2022-08-16T00:35:15.177Z,8.52
2022-08-16T00:38:03.630Z,8.73
2022-08-16T00:41:09.960Z,8.48
2022-08-16T00:44:00.405Z,8.68
2022-08-16T00:47:06.766Z,9.52
2022-08-16T00:49:56.524Z,9.48
2022-08-16T00:52:50.365Z,8.25
2022-08-16T00:55:40.155Z,10.15
2022-08-16T00:58:34.966Z,11.85
2022-08-16T01:01:23.013Z,8.63
2022-08-16T01:04:28.909Z,8.25
2022-08-16T01:07:24.176Z,9.38
2022-08-16T01:10:15.842Z,10.05
2022-08-16T01:13:15.047Z,9.48
2022-08-16T01:16:10.231Z,11.15
2022-08-16T01:19:02.670Z,9.55
2022-08-16T01:22:48.559Z,8.93
2022-08-16T01:25:12.790Z,10.00
2022-08-16T01:28:03.114Z,13.02
2022-08-16T01:30:56.856Z,10.32
2022-08-16T01:33:45.056Z,9.43
2022-08-16T01:36:37.321Z,14.95
2022-08-16T01:39:23.665Z,11.32
2022-08-16T01:42:12.985Z,9.30
2022-08-16T01:45:00.385Z,11.15
2022-08-16T01:47:51.926Z,10.40
2022-08-16T01:51:09.376Z,13.10
2022-08-16T01:53:55.202Z,12.50
2022-08-16T01:56:55.590Z,11.25
2022-08-16T01:59:43.731Z,11.35
2022-08-16T02:02:34.141Z,12.00
2022-08-16T02:05:30.553Z,14.30
2022-08-16T02:08:32.656Z,14.45
2022-08-16T02:11:19.731Z,13.38
2022-08-16T02:14:07.149Z,14.63
2022-08-16T02:17:09.063Z,13.20
2022-08-16T02:19:59.562Z,16.60
2022-08-16T02:22:47.321Z,14.57
2022-08-16T02:25:52.315Z,14.18
2022-08-16T02:28:40.186Z,15.07
2022-08-16T02:32:03.499Z,17.10
2022-08-16T02:34:41.111Z,14.95
2022-08-16T02:37:51.214Z,13.93
2022-08-16T02:40:37.446Z,13.55
2022-08-16T02:43:27.590Z,16.10
2022-08-16T02:46:16.746Z,18.57
2022-08-16T02:49:05.938Z,20.08
2022-08-16T02:51:53.956Z,16.35
2022-08-16T02:54:42.274Z,14.55
2022-08-16T02:57:31.009Z,18.45
2022-08-16T03:00:33.739Z,14.90
2022-08-16T03:03:22.771Z,13.73
2022-08-16T03:06:41.651Z,14.90
2022-08-16T03:09:22.245Z,15.88
2022-08-16T03:12:16.721Z,15.48
2022-08-16T03:15:07.980Z,15.20
2022-08-16T03:17:55.667Z,17.15
2022-08-16T03:20:45.016Z,21.30
2022-08-16T03:23:42.718Z,15.95
2022-08-16T03:26:31.982Z,17.63
2022-08-16T03:29:18.755Z,20.27
2022-08-16T03:32:05.433Z,14.75
2022-08-16T03:34:52.233Z,15.63
2022-08-16T03:38:02.600Z,16.40
2022-08-16T03:40:56.283Z,17.77
2022-08-16T03:43:51.968Z,15.05
2022-08-16T03:46:45.084Z,14.93
2022-08-16T03:49:41.062Z,17.60
2022-08-16T03:52:31.310Z,15.10
2022-08-16T03:55:20.057Z,16.27
2022-08-16T03:58:07.210Z,16.73
2022-08-16T04:00:59.048Z,15.38
2022-08-16T04:03:46.256Z,16.23
2022-08-16T04:06:33.420Z,16.08
2022-08-16T04:09:20.247Z,16.00
2022-08-16T04:12:11.210Z,15.95
2022-08-16T04:15:17.309Z,15.63
2022-08-16T04:18:24.038Z,17.00
2022-08-16T04:21:14.518Z,17.08
2022-08-16T04:24:15.891Z,15.98
2022-08-16T04:27:04.130Z,15.10
2022-08-16T04:29:55.225Z,17.08
2022-08-16T04:32:50.825Z,16.33
2022-08-16T04:35:43.792Z,15.40
2022-08-16T04:38:35.850Z,15.27
2022-08-16T04:41:32.357Z,16.30
2022-08-16T04:44:52.803Z,15.90
2022-08-16T04:47:33.424Z,15.73
2022-08-16T04:50:30.276Z,15.98
2022-08-16T04:53:19.278Z,17.42
2022-08-16T04:56:11.309Z,16.75
2022-08-16T04:58:59.053Z,16.50
2022-08-16T05:01:58.725Z,17.63
2022-08-16T05:04:45.613Z,15.57
2022-08-16T05:07:32.363Z,16.35
2022-08-16T05:10:23.481Z,16.25
2022-08-16T05:13:15.721Z,18.13
2022-08-16T05:16:03.106Z,16.60
2022-08-16T05:18:52.456Z,17.17
2022-08-16T05:21:38.832Z,17.13
2022-08-16T05:24:28.746Z,17.92
2022-08-16T05:27:16.305Z,18.75
2022-08-16T05:30:34.744Z,20.08
2022-08-16T05:33:16.620Z,16.50
2022-08-16T05:36:14.112Z,19.27
2022-08-16T05:39:08.796Z,16.95
2022-08-16T05:41:56.461Z,16.50
2022-08-16T05:44:43.585Z,18.35
2022-08-16T05:47:31.372Z,15.00
2022-08-16T05:50:19.185Z,16.65
2022-08-16T05:53:07.321Z,17.33
2022-08-16T05:56:03.801Z,16.90
2022-08-16T05:58:52.204Z,16.27
2022-08-16T06:01:42.940Z,17.50
2022-08-16T06:04:35.348Z,19.05
2022-08-16T06:07:26.622Z,16.50
2022-08-16T06:10:32.284Z,17.88
2022-08-16T06:13:23.835Z,16.40
2022-08-16T06:16:18.316Z,21.13
2022-08-16T06:19:10.794Z,18.70
2022-08-16T06:22:03.007Z,18.55
2022-08-16T06:24:54.309Z,18.55
2022-08-16T06:27:57.162Z,16.08
2022-08-16T06:30:47.731Z,18.70
2022-08-16T06:33:41.219Z,19.95
2022-08-16T06:36:29.703Z,29.33
2022-08-16T06:39:49.220Z,19.35
2022-08-16T06:42:57.364Z,16.95
2022-08-16T06:46:05.122Z,20.38
2022-08-16T06:48:52.541Z,18.98
2022-08-16T06:51:45.857Z,17.75
2022-08-16T06:54:35.539Z,17.17
2022-08-16T06:57:21.877Z,18.60
2022-08-16T07:00:24.855Z,17.00
2022-08-16T07:03:32.709Z,18.77
2022-08-16T07:06:38.958Z,20.02
2022-08-16T07:09:30.872Z,22.90
2022-08-16T07:12:19.639Z,16.92
2022-08-16T07:15:08.415Z,18.30
2022-08-16T07:18:03.416Z,17.48
2022-08-16T07:20:53.954Z,18.98
2022-08-16T07:23:42.102Z,18.27
2022-08-16T07:26:29.619Z,19.05
2022-08-16T07:29:19.987Z,20.73
2022-08-16T07:32:13.362Z,17.67
2022-08-16T07:34:59.904Z,19.02
2022-08-16T07:37:46.378Z,21.70
2022-08-16T07:40:59.534Z,21.92
2022-08-16T07:43:48.790Z,21.92
2022-08-16T07:46:40.177Z,24.27
2022-08-16T07:49:39.113Z,23.50
2022-08-16T07:52:41.392Z,21.13
2022-08-16T07:55:46.012Z,17.30
2022-08-16T07:58:36.784Z,23.83
2022-08-16T08:01:34.804Z,20.33
2022-08-16T08:04:23.151Z,19.85
2022-08-16T08:07:16.933Z,20.80
2022-08-16T08:10:11.107Z,20.60
2022-08-16T08:13:06.444Z,21.17
2022-08-16T08:15:54.643Z,20.67
2022-08-16T08:18:41.704Z,25.42
2022-08-16T08:22:00.620Z,20.67
2022-08-16T08:24:53.445Z,20.08
2022-08-16T08:27:45.996Z,22.45
2022-08-16T08:30:49.776Z,20.70
2022-08-16T08:33:43.811Z,20.20
2022-08-16T08:36:37.064Z,21.77
2022-08-16T08:39:54.942Z,20.10
2022-08-16T08:42:43.613Z,22.38
2022-08-16T08:45:47.128Z,21.80
2022-08-16T08:48:36.850Z,19.88
2022-08-16T08:51:35.631Z,21.05
2022-08-16T08:54:25.523Z,21.48
2022-08-16T08:57:14.790Z,22.70
2022-08-16T09:00:51.279Z,24.15
2022-08-16T09:03:40.430Z,24.90
2022-08-16T09:06:26.736Z,23.33
2022-08-16T09:09:17.005Z,21.45
2022-08-16T09:12:35.348Z,26.70
2022-08-16T09:15:21.636Z,24.30
2022-08-16T09:18:26.493Z,25.58
2022-08-16T09:21:15.640Z,23.73
2022-08-16T09:24:04.509Z,18.95
2022-08-16T09:26:56.856Z,23.60
2022-08-16T09:29:45.796Z,21.13
2022-08-16T09:32:36.250Z,21.88
2022-08-16T09:35:26.451Z,21.63
2022-08-16T09:38:31.208Z,23.90
2022-08-16T09:41:21.088Z,28.58
2022-08-16T09:45:09.467Z,27.70
2022-08-16T09:47:16.431Z,26.85
2022-08-16T09:50:13.769Z,26.85
2022-08-16T09:53:15.262Z,30.25
2022-08-16T09:56:05.094Z,28.83
2022-08-16T09:59:05.812Z,28.70
2022-08-16T10:01:54.768Z,34.60
2022-08-16T10:04:52.895Z,32.80
2022-08-16T10:07:44.967Z,25.25
2022-08-16T10:10:31.844Z,28.55
2022-08-16T10:13:18.782Z,30.38
2022-08-16T10:16:06.056Z,34.15
2022-08-16T10:19:06.273Z,27.95
2022-08-16T10:21:56.715Z,34.13
2022-08-16T10:24:56.063Z,36.30
2022-08-16T10:27:53.186Z,37.83
2022-08-16T10:30:44.580Z,25.30
2022-08-16T10:33:33.283Z,24.65
2022-08-16T10:36:38.103Z,27.05
2022-08-16T10:39:26.338Z,25.65
2022-08-16T10:42:27.617Z,25.08
2022-08-16T10:45:18.076Z,22.67
2022-08-16T10:48:28.185Z,25.30
2022-08-16T10:51:13.049Z,24.75
2022-08-16T10:53:59.320Z,24.90
2022-08-16T10:56:55.511Z,23.20
2022-08-16T10:59:52.993Z,25.25
2022-08-16T11:02:59.373Z,22.55
2022-08-16T11:06:00.105Z,25.00
2022-08-16T11:08:46.802Z,18.23
2022-08-16T11:11:34.341Z,14.90
2022-08-16T11:15:11.398Z,15.70
2022-08-16T11:18:47.876Z,16.17
2022-08-16T11:20:53.534Z,17.33
2022-08-16T11:23:39.474Z,17.33
2022-08-16T11:26:44.122Z,16.15
2022-08-16T11:29:30.761Z,12.68
2022-08-16T11:32:19.997Z,17.98
2022-08-16T11:35:14.845Z,25.20
2022-08-16T11:38:47.511Z,14.13
2022-08-16T11:41:17.551Z,19.00
2022-08-16T11:44:07.394Z,14.95
2022-08-16T11:46:53.706Z,11.98
2022-08-16T11:49:40.173Z,12.52
2022-08-16T11:52:27.821Z,9.82
2022-08-16T11:55:13.915Z,7.95
2022-08-16T11:58:04.425Z,9.18
2022-08-16T12:00:53.485Z,10.25
2022-08-16T12:03:41.772Z,7.57
2022-08-16T12:06:30.948Z,7.75
2022-08-16T12:09:20.530Z,9.27
2022-08-16T12:12:07.107Z,7.72
2022-08-16T12:15:00.279Z,7.28
2022-08-16T12:17:47.731Z,9.73
2022-08-16T12:20:39.534Z,7.32
2022-08-16T12:23:26.678Z,8.52
2022-08-16T12:26:12.950Z,7.25
2022-08-16T12:29:01.238Z,7.00
2022-08-16T12:32:01.224Z,6.05
2022-08-16T12:34:55.541Z,5.25
2022-08-16T12:37:43.653Z,8.02
2022-08-16T12:40:36.516Z,6.47
2022-08-16T12:43:31.144Z,4.45
2022-08-16T12:46:17.654Z,6.43
2022-08-16T12:49:05.706Z,3.92
2022-08-16T12:51:59.742Z,4.90
2022-08-16T12:54:55.011Z,4.63
2022-08-16T12:57:41.951Z,5.47
2022-08-16T13:00:33.480Z,3.92
2022-08-16T13:03:21.535Z,3.33
2022-08-16T13:06:08.744Z,3.38
2022-08-16T13:09:02.298Z,4.28
2022-08-16T13:12:00.544Z,4.80
2022-08-16T13:14:50.691Z,4.55
2022-08-16T13:17:39.076Z,4.65
2022-08-16T13:20:29.701Z,4.40
2022-08-16T13:23:17.443Z,3.65
2022-08-16T13:26:04.968Z,4.85
2022-08-16T13:28:51.746Z,4.82
2022-08-16T13:31:38.700Z,4.35
2022-08-16T13:34:25.330Z,5.97
2022-08-16T13:37:11.916Z,4.47
2022-08-16T13:40:00.508Z,6.63
2022-08-16T13:42:47.440Z,4.60
2022-08-16T13:45:36.417Z,5.70
2022-08-16T13:48:42.598Z,5.78
2022-08-16T13:51:33.808Z,8.18
2022-08-16T13:54:20.969Z,7.32
2022-08-16T13:57:07.408Z,5.28
2022-08-16T14:00:00.782Z,5.60
2022-08-16T14:02:47.849Z,4.88
2022-08-16T14:05:35.380Z,4.38
2022-08-16T14:08:26.989Z,5.88
2022-08-16T14:11:14.746Z,5.07
2022-08-16T14:14:01.615Z,5.47
2022-08-16T14:16:52.384Z,3.80
2022-08-16T14:19:44.862Z,3.90
2022-08-16T14:22:35.946Z,3.55
2022-08-16T14:25:30.604Z,4.32
2022-08-16T14:28:25.807Z,4.72
2022-08-16T14:31:12.521Z,4.78
2022-08-16T14:34:01.572Z,6.30
2022-08-16T14:36:52.036Z,4.70
2022-08-16T14:39:39.661Z,5.97
2022-08-16T14:42:27.437Z,5.35
2022-08-16T14:45:23.252Z,5.35
2022-08-16T14:48:12.200Z,6.60
2022-08-16T14:50:58.987Z,5.57
2022-08-16T14:53:45.692Z,7.60
2022-08-16T14:56:43.102Z,5.15
2022-08-16T14:59:34.326Z,5.05
2022-08-16T15:02:34.607Z,6.82
2022-08-16T15:05:23.978Z,5.05
2022-08-16T15:08:10.880Z,6.45
2022-08-16T15:10:56.716Z,9.15
2022-08-16T15:13:43.002Z,6.65
2022-08-16T15:16:29.678Z,6.50
2022-08-16T15:19:15.796Z,7.43
2022-08-16T15:22:12.507Z,11.60
2022-08-16T15:25:05.869Z,6.88
2022-08-16T15:27:54.813Z,9.48
2022-08-16T15:30:56.804Z,8.50
2022-08-16T15:33:55.160Z,9.27
2022-08-16T15:36:44.571Z,10.98
2022-08-16T15:39:39.354Z,9.80
2022-08-16T15:45:37.964Z,10.88
2022-08-16T15:48:28.616Z,10.57
2022-08-16T15:51:15.529Z,9.98
2022-08-16T15:54:21.408Z,11.82
2022-08-16T15:57:14.018Z,10.88
2022-08-16T16:00:14.872Z,11.27
2022-08-16T16:03:09.062Z,9.80
2022-08-16T16:06:01.492Z,10.27
2022-08-16T16:08:48.686Z,13.27
2022-08-16T16:11:39.221Z,13.02
2022-08-16T16:14:28.056Z,12.95
2022-08-16T16:17:17.323Z,11.82
2022-08-16T16:20:05.191Z,13.52
2022-08-16T16:23:04.735Z,13.10
2022-08-16T16:25:59.048Z,13.77
2022-08-16T16:29:08.393Z,14.48
2022-08-16T16:31:59.639Z,16.02
2022-08-16T16:34:46.196Z,13.63
2022-08-16T16:37:32.814Z,19.00
2022-08-16T16:40:28.908Z,14.30
2022-08-16T16:43:19.157Z,16.17
2022-08-16T16:46:40.789Z,17.48
2022-08-16T16:49:21.365Z,17.10
2022-08-16T16:52:11.939Z,15.73
2022-08-16T16:55:15.456Z,15.38
2022-08-16T16:58:28.837Z,17.42
2022-08-16T17:01:24.085Z,13.93
2022-08-16T17:04:31.838Z,15.07
2022-08-16T17:07:24.024Z,16.77
2022-08-16T17:10:11.099Z,15.93
2022-08-16T17:12:59.010Z,14.60
2022-08-16T17:19:14.677Z,15.50
2022-08-16T17:21:48.201Z,17.83
2022-08-16T17:24:39.998Z,17.98
2022-08-16T17:27:33.612Z,16.75
2022-08-16T17:30:29.091Z,15.68
2022-08-16T17:33:36.798Z,16.30
2022-08-16T17:36:36.296Z,22.55
2022-08-16T17:39:23.817Z,35.08
2022-08-16T17:42:18.098Z,28.40
2022-08-16T17:45:05.120Z,20.02
2022-08-16T17:47:52.031Z,17.77
2022-08-16T17:50:39.291Z,14.43
2022-08-16T17:53:25.513Z,16.40
2022-08-16T17:56:12.949Z,16.63
2022-08-16T17:58:59.135Z,15.35
2022-08-16T18:01:46.326Z,17.23
2022-08-16T18:04:45.322Z,15.50
2022-08-16T18:07:37.329Z,15.60
2022-08-16T18:10:32.645Z,17.13
2022-08-16T18:13:19.373Z,14.20
2022-08-16T18:16:08.935Z,17.33
2022-08-16T18:18:55.095Z,14.52
2022-08-16T18:22:00.347Z,15.65
2022-08-16T18:24:48.197Z,15.30
2022-08-16T18:27:36.503Z,14.73
2022-08-16T18:30:22.813Z,17.40
2022-08-16T18:33:09.186Z,16.73
2022-08-16T18:35:57.885Z,15.88
2022-08-16T18:38:47.336Z,16.90
2022-08-16T18:41:36.841Z,15.85
2022-08-16T18:44:28.411Z,17.95
2022-08-16T18:47:17.310Z,16.85
2022-08-16T18:50:03.848Z,21.00
2022-08-16T18:52:56.553Z,19.95
2022-08-16T18:55:47.119Z,19.42
2022-08-16T18:58:33.814Z,19.45
2022-08-16T19:01:20.164Z,20.13
2022-08-16T19:04:56.535Z,20.83
2022-08-16T19:07:12.818Z,24.67
2022-08-16T19:10:01.289Z,20.52
2022-08-16T19:12:50.821Z,22.92
2022-08-16T19:15:39.126Z,21.70
2022-08-16T19:18:27.271Z,22.13
2022-08-16T19:21:14.433Z,20.30
2022-08-16T19:24:01.452Z,21.33
2022-08-16T19:26:52.884Z,24.15
2022-08-16T19:29:41.983Z,24.00
2022-08-16T19:32:31.523Z,22.88
2022-08-16T19:35:19.102Z,26.05
2022-08-16T19:38:05.887Z,23.05
2022-08-16T19:40:57.127Z,26.85
2022-08-16T19:43:44.690Z,23.35
2022-08-16T19:46:32.181Z,23.52
2022-08-16T19:49:21.939Z,24.55
2022-08-16T19:52:41.514Z,23.38
2022-08-16T19:55:50.027Z,23.02
2022-08-16T19:59:01.951Z,23.05
2022-08-16T20:01:51.033Z,21.30
2022-08-16T20:04:38.699Z,21.92
2022-08-16T20:07:25.499Z,22.50
2022-08-16T20:10:15.863Z,23.70
2022-08-16T20:13:10.466Z,20.73
2022-08-16T20:15:56.898Z,19.92
2022-08-16T20:18:43.031Z,20.60
2022-08-16T20:21:32.294Z,20.83
2022-08-16T20:24:35.910Z,20.13
2022-08-16T20:30:11.109Z,22.92
2022-08-16T20:33:00.716Z,18.42
2022-08-16T20:35:51.727Z,18.73
2022-08-16T20:38:42.526Z,19.33
2022-08-16T20:41:28.747Z,20.98
2022-08-16T20:44:14.974Z,19.20
2022-08-16T20:47:01.285Z,18.92
2022-08-16T20:49:47.904Z,21.02
2022-08-16T20:52:34.195Z,18.60
2022-08-16T20:55:21.246Z,20.08
2022-08-16T20:58:07.498Z,18.70
2022-08-16T21:00:53.837Z,18.90
2022-08-16T21:03:40.366Z,18.85
2022-08-16T21:06:26.732Z,19.73
2022-08-16T21:09:15.911Z,20.25
2022-08-16T21:12:10.236Z,21.08
2022-08-16T21:15:05.313Z,24.15
2022-08-16T21:17:52.258Z,19.73
2022-08-16T21:20:38.874Z,20.65
2022-08-16T21:23:27.655Z,22.63
2022-08-16T21:26:13.758Z,21.02
2022-08-16T21:29:00.987Z,21.73
2022-08-16T21:31:47.513Z,22.75
2022-08-16T21:34:37.052Z,21.98
2022-08-16T21:37:25.412Z,23.27
2022-08-16T21:40:13.999Z,20.50
2022-08-16T21:43:16.295Z,22.15
2022-08-16T21:46:05.308Z,20.58
2022-08-16T21:48:51.813Z,23.35
2022-08-16T21:51:38.185Z,22.08
2022-08-16T21:54:24.593Z,21.63
2022-08-16T21:57:15.417Z,24.40
2022-08-16T22:00:11.227Z,21.90
2022-08-16T22:02:59.343Z,20.30
2022-08-16T22:06:02.456Z,20.77
2022-08-16T22:09:00.686Z,22.77
2022-08-16T22:11:47.214Z,24.17
2022-08-16T22:14:33.544Z,24.90
2022-08-16T22:17:20.408Z,29.67
2022-08-16T22:20:10.123Z,23.10
2022-08-16T22:23:19.882Z,22.77
2022-08-16T22:26:07.376Z,21.50
2022-08-16T22:28:57.690Z,21.23
2022-08-16T22:31:44.351Z,20.25
2022-08-16T22:34:31.949Z,19.75
2022-08-16T22:37:18.132Z,22.42
2022-08-16T22:40:04.942Z,19.83
2022-08-16T22:42:52.829Z,20.58
2022-08-16T22:45:39.352Z,20.70
2022-08-16T22:48:26.479Z,19.73
2022-08-16T22:51:12.978Z,20.88
2022-08-16T22:53:59.339Z,25.65
2022-08-16T22:56:45.531Z,21.42
2022-08-16T22:59:34.725Z,22.23
2022-08-16T23:02:20.735Z,20.35
2022-08-16T23:05:06.749Z,24.08
2022-08-16T23:07:53.128Z,20.23
2022-08-16T23:10:50.639Z,20.08
2022-08-16T23:13:37.173Z,19.92
2022-08-16T23:16:32.182Z,20.98
2022-08-16T23:19:20.185Z,22.90
2022-08-16T23:22:07.379Z,20.70
2022-08-16T23:24:56.518Z,23.23
2022-08-16T23:27:43.388Z,23.23
2022-08-16T23:30:30.888Z,22.05
2022-08-16T23:33:18.436Z,24.75
2022-08-16T23:36:05.597Z,26.48
2022-08-16T23:38:52.070Z,19.35
2022-08-16T23:41:38.210Z,20.98
2022-08-16T23:44:57.030Z,22.95
2022-08-16T23:47:30.875Z,21.65
2022-08-16T23:50:16.959Z,24.80
2022-08-16T23:53:20.316Z,23.58
2022-08-16T23:56:18.801Z,21.67
2022-08-16T23:59:05.720Z,23.38
